Time;durP1;ratioP1;P1;durP2;ratioP2;P2;SDS_P1;SDS_P2;PMS_P1;PMS_P2;Temp;Humidity;BMP_temperature;BMP_pressure;BME280_temperature;BME280_humidity;BME280_pressure;Samples;Min_cycle;Max_cycle;Signal;HPM_P1;HPM_P2
2022/07/12 00:01:26;;;;;;;2.75;1.98;;;16.00;99.90;;;;;;9179297;19;20386;-72
2022/07/12 00:04:30;;;;;;;3.28;2.10;;;16.10;99.90;;;;;;9181791;19;20010;-73
2022/07/12 00:07:33;;;;;;;3.00;2.30;;;15.90;99.90;;;;;;9184932;19;20025;-72
2022/07/12 00:10:40;;;;;;;4.25;2.25;;;15.90;99.90;;;;;;9180259;19;20018;-72
2022/07/12 00:13:44;;;;;;;3.40;1.88;;;16.00;99.90;;;;;;9178842;19;20019;-72
2022/07/12 00:16:48;;;;;;;2.45;2.05;;;16.00;99.90;;;;;;9184832;19;20026;-72
2022/07/12 00:19:52;;;;;;;2.97;1.90;;;16.00;99.90;;;;;;9182382;19;20078;-72
2022/07/12 00:22:56;;;;;;;2.97;1.98;;;16.00;99.90;;;;;;9183008;19;20021;-72
2022/07/12 00:26:04;;;;;;;2.58;1.90;;;15.90;99.90;;;;;;9188038;19;20536;-72
2022/07/12 00:29:08;;;;;;;3.72;2.03;;;15.90;99.90;;;;;;9183050;19;20034;-72
2022/07/12 00:32:12;;;;;;;2.90;2.20;;;15.70;99.90;;;;;;9187037;19;20021;-72
2022/07/12 00:35:16;;;;;;;6.20;3.03;;;15.90;99.90;;;;;;9186151;19;20074;-72
2022/07/12 00:38:20;;;;;;;5.97;3.75;;;16.00;99.90;;;;;;9187625;19;20385;-72
2022/07/12 00:41:28;;;;;;;7.55;3.20;;;15.90;99.90;;;;;;9181313;19;20018;-72
2022/07/12 00:44:33;;;;;;;4.90;3.38;;;15.90;99.90;;;;;;9183171;19;20350;-72
2022/07/12 00:47:40;;;;;;;5.20;3.42;;;16.30;99.90;;;;;;9182087;19;20047;-72
2022/07/12 00:50:44;;;;;;;3.90;2.73;;;15.80;99.90;;;;;;9180889;19;20015;-72
2022/07/12 00:53:48;;;;;;;5.20;3.85;;;15.80;99.90;;;;;;9180020;19;20294;-73
2022/07/12 00:56:54;;;;;;;7.85;4.32;;;15.80;99.90;;;;;;9167653;19;20498;-72
2022/07/12 00:59:58;;;;;;;5.60;4.30;;;15.90;99.90;;;;;;9171009;19;20041;-72
2022/07/12 01:03:05;;;;;;;6.93;3.97;;;15.90;99.90;;;;;;9182555;19;20039;-72
2022/07/12 01:06:10;;;;;;;5.57;4.07;;;15.80;99.90;;;;;;9181889;19;20018;-72
2022/07/12 01:09:14;;;;;;;7.35;3.42;;;15.60;99.90;;;;;;9181109;19;20015;-72
2022/07/12 01:12:21;;;;;;;6.65;5.07;;;15.80;99.90;;;;;;9182341;19;20047;-72
2022/07/12 01:15:25;;;;;;;6.55;5.05;;;16.00;99.90;;;;;;9181318;19;20031;-72
2022/07/12 01:18:30;;;;;;;9.23;6.47;;;15.50;99.90;;;;;;9184402;19;20022;-72
2022/07/12 01:21:37;;;;;;;8.07;6.13;;;15.70;99.90;;;;;;9181356;19;20047;-72
2022/07/12 01:24:44;;;;;;;6.72;5.18;;;15.70;99.90;;;;;;9180960;19;20010;-72
2022/07/12 01:27:48;;;;;;;6.55;4.57;;;15.70;99.90;;;;;;9184317;19;20022;-72
2022/07/12 01:30:51;;;;;;;6.88;4.60;;;15.80;99.90;;;;;;9179343;19;20014;-72
2022/07/12 01:33:55;;;;;;;7.88;5.15;;;15.80;99.90;;;;;;9182032;19;20018;-72
2022/07/12 01:37:00;;;;;;;8.98;6.22;;;15.90;99.90;;;;;;9184691;19;20022;-72
2022/07/12 01:40:09;;;;;;;8.00;5.40;;;15.80;99.90;;;;;;9180478;19;20397;-72
2022/07/12 01:43:14;;;;;;;8.20;6.03;;;15.70;99.90;;;;;;9180153;19;20491;-72
2022/07/12 01:46:17;;;;;;;11.95;8.32;;;15.50;99.90;;;;;;9180742;19;20021;-72
2022/07/12 01:49:22;;;;;;;11.10;7.78;;;15.80;99.90;;;;;;9180614;19;20487;-72
2022/07/12 01:52:27;;;;;;;13.27;9.20;;;15.70;99.90;;;;;;9179362;19;20015;-72
2022/07/12 01:55:34;;;;;;;13.68;8.82;;;15.60;99.90;;;;;;9179836;19;20491;-72
2022/07/12 01:58:39;;;;;;;14.30;8.40;;;15.70;99.90;;;;;;9185407;19;20592;-72
2022/07/12 02:01:43;;;;;;;12.13;8.52;;;15.60;99.90;;;;;;9179575;19;20015;-72
2022/07/12 02:04:47;;;;;;;12.05;8.10;;;15.50;99.90;;;;;;9182514;19;20348;-72
2022/07/12 02:07:52;;;;;;;12.85;7.75;;;15.50;99.90;;;;;;9181495;19;20418;-72
2022/07/12 02:10:58;;;;;;;12.55;8.43;;;15.60;99.90;;;;;;9177718;19;20013;-72
2022/07/12 02:14:02;;;;;;;15.85;10.65;;;15.50;99.90;;;;;;9179169;19;20025;-72
2022/07/12 02:17:06;;;;;;;15.13;10.02;;;15.50;99.90;;;;;;9180182;19;20019;-71
2022/07/12 02:20:13;;;;;;;15.63;10.50;;;15.40;99.90;;;;;;9179759;19;20014;-71
2022/07/12 02:23:17;;;;;;;16.10;10.07;;;15.40;99.90;;;;;;9177827;19;20332;-71
2022/07/12 02:26:24;;;;;;;15.60;10.75;;;15.40;99.90;;;;;;9179416;19;20014;-71
2022/07/12 02:29:29;;;;;;;15.77;9.70;;;15.60;99.90;;;;;;9175650;19;20043;-71
2022/07/12 02:32:32;;;;;;;13.38;9.52;;;15.40;99.90;;;;;;9178615;19;20184;-71
2022/07/12 02:35:36;;;;;;;16.15;10.80;;;15.30;99.90;;;;;;9180923;19;20360;-71
2022/07/12 02:38:40;;;;;;;16.95;10.85;;;15.30;99.90;;;;;;9182965;19;20025;-72
2022/07/12 02:41:46;;;;;;;15.55;10.23;;;15.30;99.90;;;;;;9179034;19;20405;-72
2022/07/12 02:44:50;;;;;;;16.45;10.40;;;15.40;99.90;;;;;;9177987;19;20020;-71
2022/07/12 02:47:54;;;;;;;13.13;9.38;;;15.30;99.90;;;;;;9180099;19;20052;-71
2022/07/12 02:50:59;;;;;;;14.75;9.63;;;15.10;99.90;;;;;;9175885;19;20006;-71
2022/07/12 02:54:03;;;;;;;15.43;9.85;;;15.30;99.90;;;;;;9177908;19;20523;-71
2022/07/12 02:57:11;;;;;;;15.88;9.68;;;15.20;99.90;;;;;;9181173;19;20010;-72
2022/07/12 03:00:16;;;;;;;14.85;10.40;;;15.20;99.90;;;;;;9181287;19;20025;-73
2022/07/12 03:03:20;;;;;;;14.98;9.52;;;15.20;99.90;;;;;;9178444;19;20014;-72
2022/07/12 03:06:24;;;;;;;14.57;8.95;;;15.30;99.90;;;;;;9177332;19;20014;-72
2022/07/12 03:09:28;;;;;;;14.57;9.55;;;15.40;99.90;;;;;;9179243;19;20010;-72
2022/07/12 03:12:35;;;;;;;15.00;9.30;;;15.40;99.90;;;;;;9179285;19;20547;-72
2022/07/12 03:15:38;;;;;;;14.65;9.30;;;15.30;99.90;;;;;;9176189;19;20026;-71
2022/07/12 03:18:43;;;;;;;12.20;8.82;;;15.50;99.90;;;;;;9181228;19;20503;-72
2022/07/12 03:21:47;;;;;;;14.23;9.50;;;15.10;99.90;;;;;;9176753;19;20363;-71
2022/07/12 03:24:51;;;;;;;13.90;9.35;;;15.10;99.90;;;;;;9176861;19;20510;-71
2022/07/12 03:27:57;;;;;;;13.10;9.07;;;15.10;99.90;;;;;;9177666;19;20010;-71
2022/07/12 03:31:02;;;;;;;13.05;9.52;;;15.10;99.90;;;;;;9176165;19;20487;-71
2022/07/12 03:34:06;;;;;;;14.05;9.45;;;15.20;99.90;;;;;;9181698;19;20018;-71
2022/07/12 03:37:10;;;;;;;13.65;8.82;;;15.20;99.90;;;;;;9178153;19;20019;-71
2022/07/12 03:40:15;;;;;;;12.50;9.10;;;15.00;99.90;;;;;;9182929;19;20021;-71
2022/07/12 03:43:22;;;;;;;13.77;9.20;;;15.00;99.90;;;;;;9185798;19;20014;-71
2022/07/12 03:46:26;;;;;;;13.68;9.63;;;15.00;99.90;;;;;;9183151;19;20018;-72
2022/07/12 03:49:30;;;;;;;12.40;8.77;;;14.90;99.90;;;;;;9186373;19;20021;-72
2022/07/12 03:52:34;;;;;;;14.95;9.70;;;15.20;99.90;;;;;;9185430;19;20022;-72
2022/07/12 03:55:38;;;;;;;13.15;8.70;;;15.10;99.90;;;;;;9188238;19;20084;-71
2022/07/12 03:58:45;;;;;;;14.38;9.23;;;15.10;99.90;;;;;;9188308;19;20015;-72
2022/07/12 04:01:49;;;;;;;13.70;8.55;;;14.90;99.90;;;;;;9185076;19;20498;-72
2022/07/12 04:04:53;;;;;;;11.93;8.38;;;15.10;99.90;;;;;;9189133;19;20094;-72
2022/07/12 04:07:57;;;;;;;13.25;9.02;;;15.00;99.90;;;;;;9188263;19;20526;-71
2022/07/12 04:11:01;;;;;;;16.17;9.38;;;15.00;99.90;;;;;;9183827;19;20023;-71
2022/07/12 04:14:08;;;;;;;15.07;9.65;;;15.20;99.90;;;;;;9180932;19;20014;-71
2022/07/12 04:17:12;;;;;;;15.75;10.10;;;15.00;99.90;;;;;;9184055;19;20021;-72
2022/07/12 04:20:16;;;;;;;15.00;9.27;;;14.90;99.90;;;;;;9183858;19;20074;-72
2022/07/12 04:23:19;;;;;;;15.48;10.15;;;15.00;99.90;;;;;;9184921;19;20018;-72
2022/07/12 04:26:23;;;;;;;15.57;9.75;;;14.90;99.90;;;;;;9183557;19;20171;-72
2022/07/12 04:29:30;;;;;;;17.00;10.48;;;15.10;99.90;;;;;;9183575;19;20014;-72
2022/07/12 04:32:34;;;;;;;14.23;10.45;;;15.10;99.90;;;;;;9184283;19;20462;-71
2022/07/12 04:35:38;;;;;;;17.75;10.98;;;15.00;99.90;;;;;;9188256;19;20503;-72
2022/07/12 04:38:42;;;;;;;18.27;11.10;;;15.10;99.90;;;;;;9184162;19;20082;-72
2022/07/12 04:41:46;;;;;;;20.02;11.88;;;15.10;99.90;;;;;;9185715;19;20385;-72
2022/07/12 04:44:53;;;;;;;19.50;12.48;;;15.00;99.90;;;;;;9183030;19;20010;-72
2022/07/12 04:47:57;;;;;;;17.25;10.43;;;15.40;99.90;;;;;;9182771;19;20020;-71
2022/07/12 04:51:01;;;;;;;16.27;10.88;;;15.20;99.90;;;;;;9178822;19;20006;-71
2022/07/12 04:54:06;;;;;;;14.93;9.90;;;15.20;99.90;;;;;;9184787;19;20368;-72
2022/07/12 04:57:10;;;;;;;14.90;10.65;;;14.90;99.90;;;;;;9183829;19;20487;-72
2022/07/12 05:00:17;;;;;;;13.90;9.52;;;14.90;99.90;;;;;;9184138;19;20010;-71
2022/07/12 05:03:22;;;;;;;12.65;8.52;;;14.80;99.90;;;;;;9183750;19;20055;-72
2022/07/12 05:06:26;;;;;;;13.02;8.90;;;15.20;99.90;;;;;;9186836;19;20345;-72
2022/07/12 05:09:30;;;;;;;12.50;8.02;;;15.10;99.90;;;;;;9182622;19;20007;-72
2022/07/12 05:12:34;;;;;;;12.38;8.57;;;14.80;99.90;;;;;;9182315;19;20020;-72
2022/07/12 05:15:40;;;;;;;9.65;6.93;;;14.80;99.90;;;;;;9184257;19;20009;-71
2022/07/12 05:18:44;;;;;;;11.43;8.13;;;14.90;99.90;;;;;;9181001;19;20015;-71
2022/07/12 05:21:48;;;;;;;8.88;6.57;;;14.90;99.90;;;;;;9181768;19;20122;-71
2022/07/12 05:24:52;;;;;;;11.25;8.48;;;14.90;99.90;;;;;;9183987;19;20014;-71
2022/07/12 05:27:56;;;;;;;11.90;7.70;;;14.80;99.90;;;;;;9186047;19;20022;-71
2022/07/12 05:31:02;;;;;;;13.48;9.35;;;15.60;99.90;;;;;;9180070;19;20032;-71
2022/07/12 05:34:06;;;;;;;13.10;8.80;;;15.00;99.90;;;;;;9186046;19;20018;-72
2022/07/12 05:37:10;;;;;;;14.00;9.02;;;14.90;99.90;;;;;;9183144;19;20015;-72
2022/07/12 05:40:14;;;;;;;13.25;9.15;;;15.00;99.90;;;;;;9182811;19;20036;-72
2022/07/12 05:43:18;;;;;;;12.80;8.10;;;14.90;99.90;;;;;;9179932;19;20410;-71
2022/07/12 05:46:25;;;;;;;11.88;8.02;;;15.70;99.90;;;;;;9181828;19;20078;-71
2022/07/12 05:49:29;;;;;;;12.80;9.05;;;15.00;99.90;;;;;;9179770;19;20124;-72
2022/07/12 05:55:53;;;;;;;13.63;9.20;;;15.00;99.90;;;;;;9179349;19;20084;-71
2022/07/12 05:58:57;;;;;;;15.45;9.50;;;14.70;99.90;;;;;;9179797;19;20073;-72
2022/07/12 06:02:04;;;;;;;10.43;6.85;;;15.10;99.90;;;;;;9183941;19;20011;-71
2022/07/12 06:05:09;;;;;;;14.77;8.95;;;15.00;99.90;;;;;;9183595;19;20041;-72
2022/07/12 06:08:13;;;;;;;13.40;9.10;;;15.00;99.90;;;;;;9181910;19;20421;-67
2022/07/12 06:11:17;;;;;;;18.30;9.98;;;15.20;99.90;;;;;;9178652;19;20014;-73
2022/07/12 06:14:21;;;;;;;14.15;9.02;;;15.20;99.90;;;;;;9181837;19;20074;-70
2022/07/12 06:17:27;;;;;;;13.45;8.65;;;15.20;99.90;;;;;;9181979;19;20523;-71
2022/07/12 06:20:31;;;;;;;11.95;8.20;;;15.30;99.90;;;;;;9180741;19;20078;-71
2022/07/12 06:23:36;;;;;;;13.23;8.57;;;15.40;99.90;;;;;;9184038;19;20006;-70
2022/07/12 06:26:40;;;;;;;13.77;9.10;;;15.30;99.90;;;;;;9183053;19;20042;-71
2022/07/12 06:29:47;;;;;;;15.73;10.25;;;15.60;99.90;;;;;;9185135;19;20014;-70
2022/07/12 06:32:54;;;;;;;16.23;10.43;;;15.60;99.90;;;;;;9177061;19;20014;-70
2022/07/12 06:35:58;;;;;;;14.45;9.10;;;15.50;99.90;;;;;;9179370;19;20039;-70
2022/07/12 06:39:02;;;;;;;14.10;8.82;;;15.50;99.90;;;;;;9181774;19;20042;-70
2022/07/12 06:42:07;;;;;;;13.52;8.23;;;15.40;99.90;;;;;;9178135;19;20115;-70
2022/07/12 06:45:12;;;;;;;12.80;8.70;;;15.70;99.90;;;;;;9180736;19;20015;-70
2022/07/12 06:48:18;;;;;;;12.63;8.32;;;15.60;99.90;;;;;;9179685;19;20045;-70
2022/07/12 06:51:22;;;;;;;13.57;8.00;;;15.70;99.90;;;;;;9176977;19;20054;-70
2022/07/12 06:54:27;;;;;;;13.07;9.00;;;15.70;99.90;;;;;;9177782;19;20014;-71
2022/07/12 06:57:33;;;;;;;12.23;8.20;;;15.70;99.90;;;;;;9175204;19;20014;-83
2022/07/12 07:00:37;;;;;;;14.00;8.75;;;15.70;99.90;;;;;;9172885;19;20055;-84
2022/07/12 07:03:43;;;;;;;13.23;8.73;;;15.90;99.90;;;;;;9178051;19;20010;-70
2022/07/12 07:07:02;;;;;;;12.30;8.52;;;15.60;99.90;;;;;;9176355;19;20014;-71
2022/07/12 07:10:08;;;;;;;13.25;8.90;;;15.80;99.90;;;;;;9177476;19;20535;-72
2022/07/12 07:13:13;;;;;;;13.13;8.55;;;15.90;99.90;;;;;;9175046;19;20006;-70
2022/07/12 07:16:17;;;;;;;12.45;8.38;;;16.10;99.90;;;;;;9187370;19;20006;-72
2022/07/12 07:19:26;;;;;;;12.80;8.85;;;15.90;99.90;;;;;;9184889;19;20494;-75
2022/07/12 07:22:30;;;;;;;12.32;8.23;;;16.10;99.90;;;;;;9185643;19;20026;-71
2022/07/12 07:25:34;;;;;;;12.85;8.65;;;16.00;99.90;;;;;;9187484;19;20433;-70
2022/07/12 07:30:52;;;;;;;14.25;9.65;;;16.00;99.90;;;;;;9184241;19;20412;-70
2022/07/12 07:31:59;;;;;;;14.80;8.88;;;16.10;99.90;;;;;;9187968;19;20029;-71
2022/07/12 07:35:07;;;;;;;12.70;8.70;;;16.10;99.90;;;;;;9186862;19;20494;-71
2022/07/12 07:38:11;;;;;;;12.85;8.25;;;15.90;99.90;;;;;;9188499;19;20022;-71
2022/07/12 07:41:15;;;;;;;15.60;8.75;;;16.00;99.90;;;;;;9184255;19;20077;-71
2022/07/12 07:44:28;;;;;;;12.32;8.73;;;16.20;99.90;;;;;;9185128;19;20047;-71
2022/07/12 07:47:31;;;;;;;14.15;8.65;;;16.10;99.90;;;;;;9184092;19;20018;-71
2022/07/12 07:50:38;;;;;;;12.98;8.32;;;16.20;99.90;;;;;;9182285;19;20066;-71
2022/07/12 07:53:42;;;;;;;13.95;8.90;;;16.40;99.90;;;;;;9181552;19;20022;-70
2022/07/12 07:56:46;;;;;;;12.45;8.20;;;16.60;99.90;;;;;;9183522;19;20019;-71
2022/07/12 07:59:50;;;;;;;12.55;8.65;;;16.40;99.90;;;;;;9187400;19;20014;-70
2022/07/12 08:02:56;;;;;;;12.35;8.20;;;16.40;99.90;;;;;;9183025;19;20073;-70
2022/07/12 08:06:03;;;;;;;15.48;8.25;;;16.50;99.90;;;;;;9186141;19;20018;-70
2022/07/12 08:09:07;;;;;;;10.43;7.32;;;16.60;99.90;;;;;;9188114;19;20010;-70
2022/07/12 08:12:11;;;;;;;11.68;7.80;;;16.50;99.90;;;;;;9180617;19;20074;-70
2022/07/12 08:15:15;;;;;;;11.73;8.25;;;16.80;99.90;;;;;;9185856;19;20085;-70
2022/07/12 08:18:19;;;;;;;11.68;7.90;;;16.90;99.90;;;;;;9184797;19;20025;-70
2022/07/12 08:21:26;;;;;;;9.60;6.72;;;16.80;99.90;;;;;;9181340;19;20021;-71
2022/07/12 08:24:30;;;;;;;11.05;7.28;;;17.00;99.90;;;;;;9182606;19;20017;-70
2022/07/12 08:27:34;;;;;;;10.48;7.22;;;17.00;99.90;;;;;;9180299;19;20018;-71
2022/07/12 08:30:38;;;;;;;11.73;7.40;;;17.20;99.90;;;;;;9186386;19;20022;-71
2022/07/12 08:33:42;;;;;;;12.18;7.97;;;17.10;99.90;;;;;;9182050;19;20015;-71
2022/07/12 08:36:49;;;;;;;11.45;7.30;;;17.40;99.90;;;;;;9181846;19;20049;-70
2022/07/12 08:39:53;;;;;;;9.75;6.88;;;17.40;99.90;;;;;;9188019;19;20600;-71
2022/07/12 08:43:00;;;;;;;9.73;6.90;;;17.40;99.90;;;;;;9181591;19;20006;-71
2022/07/12 08:46:07;;;;;;;8.70;6.75;;;17.50;99.90;;;;;;9181646;19;20018;-71
2022/07/12 08:49:11;;;;;;;9.30;6.30;;;17.60;99.90;;;;;;9184950;19;20022;-70
2022/07/12 08:52:30;;;;;;;8.55;6.00;;;17.60;99.90;;;;;;9179213;19;20010;-71
2022/07/12 08:55:37;;;;;;;9.00;6.43;;;17.60;99.90;;;;;;9184105;19;20486;-71
2022/07/12 08:58:41;;;;;;;7.90;5.30;;;17.80;99.90;;;;;;9184990;19;20042;-71
2022/07/12 09:01:49;;;;;;;8.70;6.60;;;18.00;99.90;;;;;;9180248;19;20022;-71
2022/07/12 09:05:09;;;;;;;8.40;6.13;;;17.90;99.90;;;;;;9181506;19;20085;-70
2022/07/12 09:08:15;;;;;;;7.47;5.82;;;17.90;99.90;;;;;;9183525;19;20014;-71
2022/07/12 09:11:20;;;;;;;10.57;5.47;;;17.90;99.90;;;;;;9180605;19;20520;-71
2022/07/12 09:14:24;;;;;;;7.88;5.40;;;18.00;99.90;;;;;;9182214;19;20019;-71
2022/07/12 09:17:28;;;;;;;7.25;5.32;;;18.10;99.90;;;;;;9182119;19;20386;-71
2022/07/12 09:20:33;;;;;;;6.53;4.70;;;18.30;99.90;;;;;;9180012;19;20475;-71
2022/07/12 09:23:53;;;;;;;7.30;4.50;;;18.30;99.90;;;;;;9180577;19;20479;-71
2022/07/12 09:27:00;;;;;;;7.50;4.78;;;18.40;99.90;;;;;;9180428;19;20034;-71
2022/07/12 09:30:04;;;;;;;6.32;4.68;;;18.60;99.90;;;;;;9179417;19;20577;-69
2022/07/12 09:36:27;;;;;;;6.00;4.65;;;18.70;99.90;;;;;;9183147;19;20026;-70
2022/07/12 09:39:34;;;;;;;4.88;4.38;;;18.90;99.90;;;;;;9182730;19;20507;-69
2022/07/12 09:42:38;;;;;;;5.10;4.25;;;19.00;99.90;;;;;;9178593;19;20019;-67
2022/07/12 09:45:43;;;;;;;7.15;4.93;;;18.90;99.90;;;;;;9182775;19;20018;-68
2022/07/12 09:48:48;;;;;;;5.13;4.10;;;19.20;99.90;;;;;;9178309;19;20605;-68
2022/07/12 09:51:54;;;;;;;6.10;4.50;;;19.20;99.90;;;;;;9176793;19;20011;-71
2022/07/12 09:55:04;;;;;;;4.97;3.63;;;19.10;99.90;;;;;;9179171;19;20014;-69
2022/07/12 09:58:11;;;;;;;5.28;3.85;;;19.40;99.90;;;;;;9177635;19;20014;-69
2022/07/12 10:01:15;;;;;;;;;;;19.30;99.90;;;;;;9177690;19;20019;-67
2022/07/12 10:04:24;;;;;;;5.63;3.75;;;19.50;99.90;;;;;;9182530;19;19918;-68
2022/07/12 10:07:28;;;;;;;6.43;4.10;;;19.40;99.90;;;;;;9178592;19;20014;-68
2022/07/12 10:10:35;;;;;;;5.50;3.70;;;19.60;99.90;;;;;;9178147;19;20019;-68
2022/07/12 10:13:40;;;;;;;5.68;3.70;;;19.70;99.90;;;;;;9175539;19;20383;-69
2022/07/12 10:16:46;;;;;;;5.32;4.20;;;19.80;99.90;;;;;;9180768;19;20047;-68
2022/07/12 10:19:50;;;;;;;5.72;4.05;;;19.90;99.90;;;;;;9179052;19;20028;-68
2022/07/12 10:22:56;;;;;;;5.97;4.85;;;20.00;99.90;;;;;;9181275;19;20528;-68
2022/07/12 10:26:03;;;;;;;6.73;4.37;;;20.00;99.90;;;;;;9178034;19;20460;-68
2022/07/12 10:29:09;;;;;;;4.97;3.50;;;22.10;99.90;;;;;;9177118;19;20611;-69
2022/07/12 10:32:24;;;;;;;5.88;3.40;;;20.20;99.90;;;;;;9179815;19;20051;-69
2022/07/12 10:35:30;;;;;;;8.48;4.70;;;20.30;99.90;;;;;;9176973;19;20539;-68
2022/07/12 10:38:34;;;;;;;6.10;4.10;;;20.40;99.90;;;;;;9180039;19;20521;-67
2022/07/12 10:41:41;;;;;;;6.32;4.45;;;20.60;99.90;;;;;;9175425;19;20483;-69
2022/07/12 10:44:46;;;;;;;5.40;3.88;;;20.50;99.90;;;;;;9178006;19;20386;-69
2022/07/12 10:47:56;;;;;;;6.28;4.15;;;20.60;99.90;;;;;;9176232;19;20014;-69
2022/07/12 10:51:19;;;;;;;4.15;3.30;;;20.70;99.90;;;;;;9175165;19;20018;-68
2022/07/12 10:54:24;;;;;;;7.53;3.70;;;20.80;99.90;;;;;;9177505;19;20019;-68
2022/07/12 10:57:44;;;;;;;5.03;4.10;;;19.80;99.90;;;;;;9180089;19;20054;-69
2022/07/12 11:00:50;;;;;;;5.18;3.83;;;20.90;99.90;;;;;;9177835;19;20023;-70
2022/07/12 11:03:59;;;;;;;4.85;3.47;;;20.90;99.90;;;;;;9177830;19;20014;-69
2022/07/12 11:07:05;;;;;;;;;;;21.10;99.90;;;;;;9181094;19;20416;-69
2022/07/12 11:10:09;;;;;;;4.25;3.30;;;21.10;99.90;;;;;;9175977;19;19918;-70
2022/07/12 11:13:26;;;;;;;4.38;2.65;;;21.10;99.90;;;;;;9177349;19;20486;-69
2022/07/12 11:16:30;;;;;;;;;;;21.20;99.90;;;;;;9176597;19;20352;-70
2022/07/12 11:19:35;;;;;;;5.03;3.47;;;21.20;99.90;;;;;;9174947;19;19948;-69
2022/07/12 11:22:40;;;;;;;4.68;3.40;;;21.20;99.90;;;;;;9175191;19;20013;-69
2022/07/12 11:25:44;;;;;;;4.30;2.90;;;21.50;99.90;;;;;;9178785;19;20010;-69
2022/07/12 11:28:51;;;;;;;3.67;2.67;;;21.40;99.90;;;;;;9178955;19;20491;-69
2022/07/12 11:32:04;;;;;;;2.80;2.40;;;21.30;99.90;;;;;;9176676;19;20022;-69
2022/07/12 11:35:21;;;;;;;3.53;2.67;;;21.40;99.90;;;;;;9175515;19;20491;-70
2022/07/12 11:38:27;;;;;;;3.55;2.60;;;21.40;99.90;;;;;;9176202;19;20010;-71
2022/07/12 11:41:31;;;;;;;2.80;2.20;;;21.60;99.90;;;;;;9171575;19;20007;-69
2022/07/12 11:44:51;;;;;;;2.42;2.03;;;21.60;99.90;;;;;;9176657;19;20018;-69
2022/07/12 11:47:56;;;;;;;3.65;2.00;;;21.60;99.90;;;;;;9174743;19;20082;-69
2022/07/12 11:51:02;;;;;;;3.15;1.98;;;21.80;99.90;;;;;;9179433;19;20025;-71
2022/07/12 11:54:06;;;;;;;3.75;1.90;;;22.00;99.90;;;;;;9172671;19;20014;-80
2022/07/12 11:57:12;;;;;;;3.10;2.00;;;21.90;99.90;;;;;;9181165;19;20018;-68
2022/07/12 12:00:24;;;;;;;2.55;1.90;;;21.70;99.90;;;;;;9177762;19;20487;-69
2022/07/12 12:03:28;;;;;;;2.08;1.80;;;21.90;99.90;;;;;;9188669;19;20014;-69
2022/07/12 12:06:33;;;;;;;1.90;1.70;;;22.00;99.90;;;;;;9183907;19;20015;-70
2022/07/12 12:10:02;;;;;;;2.03;1.73;;;21.80;99.90;;;;;;9184993;19;20011;-71
2022/07/12 12:13:06;;;;;;;2.00;1.58;;;21.90;99.90;;;;;;9181191;19;20011;-70
2022/07/12 12:16:13;;;;;;;3.10;1.60;;;22.00;99.90;;;;;;9184319;19;20021;-72
2022/07/12 12:19:17;;;;;;;1.92;1.63;;;22.10;99.90;;;;;;9182956;19;20015;-69
2022/07/12 12:22:31;;;;;;;2.90;1.50;;;22.20;99.90;;;;;;9184194;19;20034;-69
2022/07/12 12:25:37;;;;;;;2.67;1.40;;;22.40;99.90;;;;;;9187973;19;20018;-69
2022/07/12 12:28:45;;;;;;;2.60;1.77;;;22.40;99.90;;;;;;9181791;19;20532;-69
2022/07/12 12:32:01;;;;;;;3.22;1.52;;;22.40;99.90;;;;;;9183030;19;20022;-70
2022/07/12 12:35:08;;;;;;;3.42;1.90;;;22.40;99.90;;;;;;9181842;19;20106;-71
2022/07/12 12:38:15;;;;;;;2.67;1.60;;;22.40;99.90;;;;;;9180031;19;20082;-70
2022/07/12 12:41:22;;;;;;;2.83;1.67;;;22.40;99.90;;;;;;9181794;19;20094;-71
2022/07/12 12:44:26;;;;;;;2.63;1.60;;;22.50;99.90;;;;;;9185618;19;20051;-71
2022/07/12 12:47:35;;;;;;;1.77;1.58;;;22.70;99.90;;;;;;9182883;19;20024;-71
2022/07/12 12:50:44;;;;;;;3.65;1.60;;;22.80;99.90;;;;;;9181473;19;20487;-72
2022/07/12 12:53:58;;;;;;;2.80;1.83;;;22.90;99.90;;;;;;9181669;19;20014;-69
2022/07/12 12:57:02;;;;;;;2.00;1.55;;;23.20;99.90;;;;;;9180649;19;20077;-70
2022/07/12 13:00:08;;;;;;;2.33;1.70;;;23.60;99.90;;;;;;9181517;19;20025;-70
2022/07/12 13:03:17;;;;;;;2.75;1.67;;;23.60;99.90;;;;;;9184768;19;20385;-71
2022/07/12 13:06:22;;;;;;;2.30;1.70;;;23.60;99.90;;;;;;9181752;19;20018;-67
2022/07/12 13:09:27;;;;;;;1.80;1.50;;;23.60;99.90;;;;;;9180555;19;20022;-70
2022/07/12 13:12:31;;;;;;;2.47;1.40;;;23.80;99.90;;;;;;9177267;19;20014;-71
2022/07/12 13:15:37;;;;;;;2.00;1.50;;;23.90;99.80;;;;;;9180005;19;20018;-71
2022/07/12 13:18:44;;;;;;;2.23;1.30;;;24.10;99.50;;;;;;9179947;19;20023;-70
2022/07/12 13:21:48;;;;;;;1.95;1.50;;;24.10;99.00;;;;;;9178979;19;20022;-70
2022/07/12 13:24:52;;;;;;;4.90;1.50;;;24.50;99.10;;;;;;9183045;19;20408;-72
2022/07/12 13:27:56;;;;;;;1.90;1.50;;;24.60;98.90;;;;;;9183741;19;20016;-70
2022/07/12 13:31:00;;;;;;;1.83;1.45;;;24.70;98.10;;;;;;9181634;19;20348;-73
2022/07/12 13:34:06;;;;;;;3.17;1.50;;;24.80;98.40;;;;;;9181794;19;20011;-74
2022/07/12 13:37:10;;;;;;;1.30;1.10;;;25.00;98.70;;;;;;9185565;19;20015;-76
2022/07/12 13:40:14;;;;;;;1.77;1.10;;;25.00;97.60;;;;;;9165342;19;20018;-78
2022/07/12 13:43:18;;;;;;;2.58;1.02;;;25.50;97.30;;;;;;9171433;19;20019;-78
2022/07/12 13:46:23;;;;;;;2.15;1.40;;;25.40;96.60;;;;;;9177049;19;20018;-78
2022/07/12 13:49:29;;;;;;;3.13;1.30;;;25.40;96.00;;;;;;9182374;19;20019;-78
2022/07/12 13:52:34;;;;;;;10.88;1.80;;;25.20;95.30;;;;;;9180341;19;20025;-77
2022/07/12 13:55:38;;;;;;;6.32;1.27;;;25.40;95.80;;;;;;9180410;19;20010;-78
2022/07/12 13:58:42;;;;;;;2.55;1.23;;;25.20;95.00;;;;;;9182289;19;20017;-77
2022/07/12 14:01:46;;;;;;;2.20;1.40;;;25.40;94.90;;;;;;9179064;19;20018;-78
2022/07/12 14:04:52;;;;;;;2.35;1.10;;;25.20;94.70;;;;;;9177752;19;20032;-77
2022/07/12 14:07:56;;;;;;;;;;;24.90;94.70;;;;;;9180740;19;20541;-84
2022/07/12 14:11:00;;;;;;;1.77;1.20;;;24.80;94.40;;;;;;9185657;19;19951;-83
2022/07/12 14:14:04;;;;;;;2.80;1.40;;;24.80;95.80;;;;;;9178530;19;20039;-74
2022/07/12 14:17:08;;;;;;;1.83;1.33;;;24.80;95.40;;;;;;9179196;19;20043;-88
2022/07/12 14:20:18;;;;;;;1.40;1.20;;;24.80;95.30;;;;;;9189671;19;20024;-88
2022/07/12 14:23:22;;;;;;;2.60;1.40;;;24.70;95.50;;;;;;9185845;19;20483;-89
2022/07/12 14:26:26;;;;;;;3.17;1.30;;;24.70;96.00;;;;;;9183109;19;20511;-86
2022/07/12 14:29:30;;;;;;;1.67;1.25;;;24.60;96.10;;;;;;9189128;19;20094;-89
2022/07/12 14:32:34;;;;;;;1.60;1.17;;;24.60;95.70;;;;;;9184089;19;20024;-88
2022/07/12 14:35:40;;;;;;;2.03;1.17;;;24.40;95.40;;;;;;9189080;19;20487;-89
2022/07/12 14:38:44;;;;;;;2.60;0.80;;;24.50;95.60;;;;;;9195020;19;20011;-88
2022/07/12 14:41:49;;;;;;;2.53;1.10;;;24.40;94.10;;;;;;9191927;19;20033;-88
2022/07/12 14:44:53;;;;;;;1.90;1.05;;;24.20;93.70;;;;;;9191550;19;20026;-88
2022/07/12 14:47:57;;;;;;;1.65;1.05;;;24.20;93.80;;;;;;9187592;19;20508;-85
2022/07/12 14:51:04;;;;;;;6.13;2.42;;;24.00;94.60;;;;;;9189127;19;20390;-89
2022/07/12 14:54:08;;;;;;;2.10;1.10;;;24.20;94.90;;;;;;9184778;19;20023;-91
2022/07/12 14:57:12;;;;;;;1.75;1.10;;;24.10;95.10;;;;;;9185186;19;20544;-89
2022/07/12 15:00:16;;;;;;;2.38;1.10;;;24.20;95.40;;;;;;9188092;19;20483;-86
2022/07/12 15:03:20;;;;;;;1.40;1.10;;;24.20;95.10;;;;;;9178874;19;20011;-91
2022/07/12 15:06:27;;;;;;;1.25;1.13;;;24.20;94.60;;;;;;9181824;19;20787;-90
2022/07/12 15:09:31;;;;;;;1.08;0.90;;;24.00;95.00;;;;;;9182139;19;20026;-90
2022/07/12 15:12:35;;;;;;;2.10;1.00;;;24.20;94.20;;;;;;9187645;19;20111;-90
2022/07/12 15:15:40;;;;;;;3.85;1.20;;;24.20;94.00;;;;;;9181602;19;20038;-91
2022/07/12 15:18:43;;;;;;;1.90;1.05;;;24.20;93.80;;;;;;9187245;19;20014;-89
2022/07/12 15:21:50;;;;;;;2.08;1.27;;;24.40;94.10;;;;;;9181148;19;20014;-90
2022/07/12 15:24:54;;;;;;;2.45;1.25;;;24.30;93.60;;;;;;9184403;19;20078;-89
2022/07/12 15:27:58;;;;;;;2.97;1.20;;;24.20;94.10;;;;;;9189666;19;20063;-91
2022/07/12 15:31:02;;;;;;;2.58;1.20;;;24.10;94.70;;;;;;9189650;19;20352;-89
2022/07/12 15:34:06;;;;;;;1.83;1.15;;;24.10;94.90;;;;;;9185184;19;20015;-87
2022/07/12 15:37:13;;;;;;;3.85;1.25;;;24.20;95.30;;;;;;9194220;19;20047;-88
2022/07/12 15:40:17;;;;;;;2.30;1.20;;;24.10;95.30;;;;;;9195528;19;20105;-90
2022/07/12 15:43:20;;;;;;;2.65;1.30;;;24.10;95.80;;;;;;9202790;19;20006;-87
2022/07/12 15:46:24;;;;;;;3.58;1.67;;;24.20;96.20;;;;;;9209596;19;20030;-89
2022/07/12 15:49:28;;;;;;;4.53;1.30;;;24.20;96.10;;;;;;9205063;19;20022;-84
2022/07/12 15:55:51;;;;;;;2.25;1.08;;;24.30;95.90;;;;;;9197265;19;20413;-89
2022/07/12 15:58:55;;;;;;;2.55;1.27;;;24.30;95.40;;;;;;9198269;19;20014;-88
2022/07/12 16:01:59;;;;;;;1.83;1.35;;;24.20;95.10;;;;;;9200354;19;20011;-88
2022/07/12 16:05:03;;;;;;;2.88;1.50;;;24.30;94.60;;;;;;9191440;19;20029;-89
2022/07/12 16:08:10;;;;;;;1.55;1.15;;;24.20;94.80;;;;;;9190425;19;20029;-89
2022/07/12 16:11:14;;;;;;;5.47;2.42;;;24.30;95.60;;;;;;9195228;19;20498;-89